createdAt,value
2022-10-13T00:00:51.003Z,99.80
2022-10-13T00:03:18.514Z,98.97
2022-10-13T00:05:48.135Z,99.30
2022-10-13T00:08:21.351Z,99.17
2022-10-13T00:10:50.910Z,99.04
2022-10-13T00:13:18.654Z,99.15
2022-10-13T00:15:46.893Z,99.82
2022-10-13T00:18:14.474Z,98.60
2022-10-13T00:20:47.752Z,98.78
2022-10-13T00:23:15.402Z,98.95
2022-10-13T00:25:48.238Z,99.77
2022-10-13T00:28:17.508Z,99.93
2022-10-13T00:30:44.871Z,100.00
2022-10-13T00:33:13.366Z,100.00
2022-10-13T00:35:44.775Z,100.00
2022-10-13T00:38:12.386Z,100.00
2022-10-13T00:40:54.077Z,99.96
2022-10-13T00:43:25.426Z,100.00
2022-10-13T00:45:53.789Z,100.00
2022-10-13T00:48:31.317Z,100.00
2022-10-13T00:50:58.941Z,99.89
2022-10-13T00:53:32.005Z,99.88
2022-10-13T00:55:59.763Z,99.46
2022-10-13T00:58:33.060Z,99.24
2022-10-13T01:01:01.078Z,99.76
2022-10-13T01:03:28.219Z,98.72
2022-10-13T01:05:58.268Z,98.83
2022-10-13T01:08:27.223Z,98.78
2022-10-13T01:11:09.329Z,98.31
2022-10-13T01:13:59.049Z,98.08
2022-10-13T01:16:46.557Z,98.33
2022-10-13T01:19:40.928Z,98.19
2022-10-13T01:22:33.891Z,98.13
2022-10-13T01:25:32.274Z,98.02
2022-10-13T01:28:05.045Z,98.65
2022-10-13T01:30:41.091Z,98.96
2022-10-13T01:33:20.610Z,98.49
2022-10-13T01:36:26.733Z,98.21
2022-10-13T01:38:56.368Z,98.35
2022-10-13T01:41:46.559Z,98.34
2022-10-13T01:44:31.279Z,98.12
2022-10-13T01:46:59.615Z,98.26
2022-10-13T01:49:31.347Z,98.80
2022-10-13T01:52:03.418Z,98.62
2022-10-13T01:54:30.536Z,98.62
2022-10-13T01:56:58.583Z,98.98
2022-10-13T01:59:30.025Z,99.54
2022-10-13T02:02:14.569Z,99.93
2022-10-13T02:04:57.308Z,99.11
2022-10-13T02:07:41.705Z,100.00
2022-10-13T02:10:08.611Z,99.96
2022-10-13T02:13:03.502Z,100.00
2022-10-13T02:15:35.952Z,100.00
2022-10-13T02:18:04.854Z,100.00
2022-10-13T02:20:32.310Z,100.00
2022-10-13T02:23:04.365Z,99.33
2022-10-13T02:25:32.124Z,99.60
2022-10-13T02:28:01.013Z,99.58
2022-10-13T02:30:30.514Z,100.00
2022-10-13T02:32:57.793Z,99.98
2022-10-13T02:35:24.625Z,100.00
2022-10-13T02:37:51.601Z,99.85
2022-10-13T02:40:18.595Z,100.00
2022-10-13T02:42:45.491Z,99.32
2022-10-13T02:45:12.441Z,99.58
2022-10-13T02:47:40.075Z,99.66
2022-10-13T02:50:07.635Z,99.78
2022-10-13T02:52:37.929Z,99.70
2022-10-13T02:55:05.512Z,99.15
2022-10-13T02:57:32.783Z,99.89
2022-10-13T03:00:00.019Z,99.69
2022-10-13T03:02:28.154Z,99.78
2022-10-13T03:04:55.220Z,99.71
2022-10-13T03:07:22.179Z,99.52
2022-10-13T03:09:49.035Z,99.55
2022-10-13T03:12:15.956Z,98.91
2022-10-13T03:14:43.787Z,99.02
2022-10-13T03:17:13.487Z,99.37
2022-10-13T03:19:40.853Z,98.95
2022-10-13T03:22:07.854Z,100.00
2022-10-13T03:24:34.906Z,99.39
2022-10-13T03:27:01.927Z,99.09
2022-10-13T03:29:29.072Z,98.32
2022-10-13T03:31:59.010Z,98.68
2022-10-13T03:34:25.865Z,98.71
2022-10-13T03:36:52.822Z,98.98
2022-10-13T03:39:19.691Z,99.44
2022-10-13T03:41:46.591Z,99.41
2022-10-13T03:44:14.016Z,99.58
2022-10-13T03:46:41.132Z,100.00
2022-10-13T03:49:07.983Z,100.00
2022-10-13T03:51:35.062Z,99.81
2022-10-13T03:54:01.974Z,99.90
2022-10-13T03:56:28.923Z,100.00
2022-10-13T03:58:59.282Z,99.78
2022-10-13T04:01:29.577Z,100.00
2022-10-13T04:03:59.737Z,100.00
2022-10-13T04:06:27.274Z,100.00
2022-10-13T04:08:54.827Z,100.00
2022-10-13T04:11:22.311Z,100.00
2022-10-13T04:13:49.309Z,100.00
2022-10-13T04:16:22.100Z,99.16
2022-10-13T04:19:15.872Z,100.00
2022-10-13T04:21:43.653Z,100.00
2022-10-13T04:24:13.283Z,100.00
2022-10-13T04:26:41.038Z,100.00
2022-10-13T04:29:09.928Z,100.00
2022-10-13T04:31:37.185Z,100.00
2022-10-13T04:34:04.336Z,99.59
2022-10-13T04:36:31.425Z,99.38
2022-10-13T04:38:58.278Z,99.63
2022-10-13T04:41:26.186Z,100.00
2022-10-13T04:43:54.289Z,100.00
2022-10-13T04:46:24.559Z,99.88
2022-10-13T04:48:52.091Z,99.95
2022-10-13T04:51:22.210Z,100.00
2022-10-13T04:53:49.341Z,100.00
2022-10-13T04:56:18.018Z,100.00
2022-10-13T04:58:46.070Z,100.00
2022-10-13T05:01:22.202Z,100.00
2022-10-13T05:03:57.646Z,100.00
2022-10-13T05:06:31.568Z,100.00
2022-10-13T05:08:59.261Z,100.00
2022-10-13T05:11:27.432Z,100.00
2022-10-13T05:13:55.195Z,99.75
2022-10-13T05:16:22.929Z,99.50
2022-10-13T05:18:51.415Z,99.38
2022-10-13T05:21:24.595Z,98.37
2022-10-13T05:23:56.496Z,98.81
2022-10-13T05:26:29.123Z,98.60
2022-10-13T05:28:57.269Z,97.25
2022-10-13T05:31:25.762Z,98.48
2022-10-13T05:33:53.291Z,98.75
2022-10-13T05:36:23.306Z,98.33
2022-10-13T05:38:55.665Z,99.71
2022-10-13T05:41:24.341Z,99.28
2022-10-13T05:43:54.523Z,98.73
2022-10-13T05:46:21.674Z,99.09
2022-10-13T05:48:48.573Z,99.39
2022-10-13T05:51:23.067Z,99.14
2022-10-13T05:54:01.260Z,98.45
2022-10-13T05:56:32.947Z,97.93
2022-10-13T05:59:04.887Z,98.27
2022-10-13T06:01:34.514Z,97.99
2022-10-13T06:04:06.461Z,98.26
2022-10-13T06:06:33.843Z,97.76
2022-10-13T06:09:01.404Z,97.40
2022-10-13T06:11:28.426Z,97.59
2022-10-13T06:13:55.532Z,97.04
2022-10-13T06:16:24.314Z,97.71
2022-10-13T06:18:54.367Z,96.87
2022-10-13T06:21:21.353Z,96.11
2022-10-13T06:23:48.473Z,95.75
2022-10-13T06:26:15.423Z,95.99
2022-10-13T06:28:46.252Z,96.03
2022-10-13T06:31:16.036Z,95.62
2022-10-13T06:33:43.215Z,94.92
2022-10-13T06:36:10.450Z,95.21
2022-10-13T06:38:37.340Z,94.30
2022-10-13T06:41:05.590Z,93.16
2022-10-13T06:43:39.659Z,92.33
2022-10-13T06:46:07.993Z,90.97
2022-10-13T06:48:35.506Z,90.18
2022-10-13T06:51:04.135Z,89.40
2022-10-13T06:53:31.524Z,87.62
2022-10-13T06:55:59.652Z,86.39
2022-10-13T06:58:26.662Z,85.78
2022-10-13T07:00:54.185Z,85.08
2022-10-13T07:03:22.138Z,84.13
2022-10-13T07:05:49.074Z,83.21
2022-10-13T07:08:16.003Z,82.10
2022-10-13T07:10:43.064Z,80.61
2022-10-13T07:13:10.046Z,78.68
2022-10-13T07:15:41.040Z,77.29
2022-10-13T07:18:08.283Z,76.05
2022-10-13T07:20:35.582Z,77.27
2022-10-13T07:23:02.817Z,77.87
2022-10-13T07:25:29.753Z,78.08
2022-10-13T07:27:59.226Z,76.34
2022-10-13T07:30:26.462Z,76.33
2022-10-13T07:32:53.616Z,75.85
2022-10-13T07:35:28.129Z,75.05
2022-10-13T07:37:57.367Z,72.74
2022-10-13T07:40:24.417Z,71.69
2022-10-13T07:42:51.343Z,70.84
2022-10-13T07:45:18.421Z,71.25
2022-10-13T07:47:45.272Z,70.47
2022-10-13T07:50:12.194Z,70.09
2022-10-13T07:52:39.159Z,70.53
2022-10-13T07:55:06.691Z,71.22
2022-10-13T07:57:33.915Z,71.65
2022-10-13T08:00:01.356Z,72.50
2022-10-13T08:02:28.452Z,72.14
2022-10-13T08:04:55.281Z,71.84
2022-10-13T08:07:22.974Z,73.07
2022-10-13T08:09:50.142Z,71.38
2022-10-13T08:12:17.582Z,70.92
2022-10-13T08:14:44.859Z,69.99
2022-10-13T08:17:11.858Z,68.04
2022-10-13T08:19:38.721Z,68.47
2022-10-13T08:22:09.617Z,67.75
2022-10-13T08:24:37.103Z,67.51
2022-10-13T08:27:04.068Z,66.84
2022-10-13T08:29:31.152Z,64.79
2022-10-13T08:31:58.167Z,64.72
2022-10-13T08:34:25.609Z,63.51
2022-10-13T08:36:54.890Z,61.34
2022-10-13T08:39:22.958Z,61.58
2022-10-13T08:41:50.535Z,60.93
2022-10-13T08:45:10.523Z,60.56
2022-10-13T08:47:30.283Z,60.90
2022-10-13T08:50:01.327Z,61.24
2022-10-13T08:52:44.315Z,61.17
2022-10-13T08:55:22.010Z,60.03
2022-10-13T08:57:49.008Z,57.36
2022-10-13T09:00:16.235Z,58.10
2022-10-13T09:02:45.257Z,58.72
2022-10-13T09:05:28.149Z,58.02
2022-10-13T09:07:57.637Z,58.69
2022-10-13T09:10:24.665Z,58.03
2022-10-13T09:12:56.219Z,57.52
2022-10-13T09:15:23.280Z,55.48
2022-10-13T09:18:10.839Z,55.54
2022-10-13T09:20:38.311Z,55.34
2022-10-13T09:23:15.943Z,53.27
2022-10-13T09:25:45.478Z,54.15
2022-10-13T09:28:24.922Z,53.51
2022-10-13T09:31:11.686Z,54.97
2022-10-13T09:33:40.893Z,57.03
2022-10-13T09:36:13.013Z,56.35
2022-10-13T09:38:42.366Z,57.02
2022-10-13T09:41:12.360Z,56.08
2022-10-13T09:43:43.290Z,55.51
2022-10-13T09:46:48.614Z,55.71
2022-10-13T09:49:38.961Z,55.15
2022-10-13T09:52:19.667Z,53.94
2022-10-13T09:54:52.908Z,54.20
2022-10-13T09:57:38.191Z,53.00
2022-10-13T10:00:17.559Z,52.24
2022-10-13T10:02:58.539Z,52.53
2022-10-13T10:05:51.132Z,52.43
2022-10-13T10:09:02.061Z,51.94
2022-10-13T10:11:42.648Z,51.26
2022-10-13T10:14:26.624Z,50.88
2022-10-13T10:17:06.787Z,51.66
2022-10-13T10:19:54.792Z,52.20
2022-10-13T10:22:30.587Z,51.75
2022-10-13T10:25:19.401Z,53.06
2022-10-13T10:28:02.659Z,53.31
2022-10-13T10:30:31.932Z,52.43
2022-10-13T10:33:12.317Z,51.90
2022-10-13T10:35:48.081Z,51.79
2022-10-13T10:38:20.938Z,51.96
2022-10-13T10:41:04.495Z,51.46
2022-10-13T10:43:47.303Z,51.33
2022-10-13T10:46:23.320Z,50.68
2022-10-13T10:48:55.145Z,51.88
2022-10-13T10:51:36.349Z,52.39
2022-10-13T10:54:24.898Z,51.82
2022-10-13T10:56:56.550Z,51.00
2022-10-13T10:59:32.472Z,51.58
2022-10-13T11:02:15.148Z,50.28
2022-10-13T11:04:46.534Z,49.62
2022-10-13T11:07:23.397Z,50.36
2022-10-13T11:09:51.864Z,48.60
2022-10-13T11:12:23.646Z,49.28
2022-10-13T11:15:10.216Z,49.00
2022-10-13T11:17:39.161Z,49.00
2022-10-13T11:20:18.334Z,49.55
2022-10-13T11:23:08.286Z,48.36
2022-10-13T11:25:42.681Z,48.57
2022-10-13T11:28:22.071Z,49.74
2022-10-13T11:30:50.872Z,49.71
2022-10-13T11:33:39.119Z,48.26
2022-10-13T11:36:37.166Z,48.41
2022-10-13T11:39:28.697Z,47.90
2022-10-13T11:42:06.078Z,49.69
2022-10-13T11:44:55.783Z,49.62
2022-10-13T11:47:46.927Z,47.01
2022-10-13T11:50:40.116Z,47.73
2022-10-13T11:53:19.213Z,47.04
2022-10-13T11:55:53.121Z,46.14
2022-10-13T11:58:27.487Z,44.71
2022-10-13T12:01:06.983Z,44.40
2022-10-13T12:03:35.465Z,45.29
2022-10-13T12:06:21.933Z,44.31
2022-10-13T12:08:51.788Z,43.69
2022-10-13T12:11:28.326Z,42.45
2022-10-13T12:13:56.005Z,44.12
2022-10-13T12:16:23.155Z,45.65
2022-10-13T12:18:50.768Z,46.01
2022-10-13T12:21:21.583Z,47.52
2022-10-13T12:23:50.834Z,46.94
2022-10-13T12:26:20.901Z,45.70
2022-10-13T12:29:02.841Z,45.42
2022-10-13T12:31:42.311Z,45.24
2022-10-13T12:34:36.578Z,45.44
2022-10-13T12:37:14.983Z,45.97
2022-10-13T12:39:41.997Z,45.74
2022-10-13T12:42:14.216Z,48.55
2022-10-13T12:44:41.490Z,49.29
2022-10-13T12:47:48.287Z,47.63
2022-10-13T12:50:30.095Z,48.76
2022-10-13T12:53:09.056Z,49.46
2022-10-13T12:55:45.602Z,49.22
2022-10-13T12:58:18.966Z,49.44
2022-10-13T13:01:06.293Z,50.09
2022-10-13T13:03:33.634Z,49.94
2022-10-13T13:06:10.014Z,50.45
2022-10-13T13:08:36.901Z,50.58
2022-10-13T13:11:09.837Z,50.81
2022-10-13T13:13:36.731Z,50.31
2022-10-13T13:16:21.910Z,50.84
2022-10-13T13:18:52.461Z,49.76
2022-10-13T13:21:19.953Z,49.99
2022-10-13T13:23:52.847Z,49.50
2022-10-13T13:26:24.365Z,50.52
2022-10-13T13:28:56.088Z,49.67
2022-10-13T13:31:25.141Z,50.03
2022-10-13T13:33:52.902Z,50.53
2022-10-13T13:36:21.812Z,49.33
2022-10-13T13:38:49.921Z,50.32
2022-10-13T13:41:17.230Z,49.31
2022-10-13T13:43:44.361Z,49.47
2022-10-13T13:46:21.351Z,49.22
2022-10-13T13:48:48.940Z,49.38
2022-10-13T13:51:16.044Z,49.42
2022-10-13T13:53:43.141Z,49.52
2022-10-13T13:56:28.113Z,49.82
2022-10-13T13:58:55.067Z,49.07
2022-10-13T14:01:22.910Z,49.11
2022-10-13T14:03:49.836Z,50.11
2022-10-13T14:06:21.365Z,50.74
2022-10-13T14:08:48.548Z,50.80
2022-10-13T14:11:15.796Z,50.09
2022-10-13T14:13:42.888Z,50.51
2022-10-13T14:16:16.827Z,50.62
2022-10-13T14:18:43.756Z,51.82
2022-10-13T14:21:10.769Z,51.73
2022-10-13T14:23:38.526Z,50.54
2022-10-13T14:26:07.578Z,50.63
2022-10-13T14:28:34.458Z,50.97
2022-10-13T14:31:05.024Z,50.54
2022-10-13T14:33:32.036Z,50.97
2022-10-13T14:36:03.164Z,52.29
2022-10-13T14:38:29.977Z,51.66
2022-10-13T14:41:01.387Z,52.67
2022-10-13T14:43:28.558Z,52.86
2022-10-13T14:45:55.817Z,53.54
2022-10-13T14:48:24.887Z,53.69
2022-10-13T14:50:51.818Z,53.43
2022-10-13T14:53:18.656Z,54.38
2022-10-13T14:55:45.627Z,54.69
2022-10-13T14:58:13.107Z,54.95
2022-10-13T15:00:42.586Z,55.38
2022-10-13T15:03:09.487Z,55.38
2022-10-13T15:05:36.777Z,55.57
2022-10-13T15:08:03.630Z,55.87
2022-10-13T15:10:30.826Z,56.68
2022-10-13T15:12:57.661Z,57.63
2022-10-13T15:15:24.669Z,57.45
2022-10-13T15:17:51.480Z,57.61
2022-10-13T15:20:18.366Z,58.06
2022-10-13T15:22:45.126Z,57.86
2022-10-13T15:25:11.992Z,57.78
2022-10-13T15:27:41.994Z,58.04
2022-10-13T15:30:09.769Z,58.37
2022-10-13T15:32:36.768Z,59.06
2022-10-13T15:35:03.855Z,59.24
2022-10-13T15:37:30.633Z,59.48
2022-10-13T15:39:57.813Z,59.74
2022-10-13T15:42:27.993Z,60.22
2022-10-13T15:45:09.493Z,60.51
2022-10-13T15:47:38.097Z,61.03
2022-10-13T15:50:05.138Z,61.51
2022-10-13T15:52:34.960Z,62.09
2022-10-13T15:55:02.404Z,62.68
2022-10-13T15:57:31.067Z,63.54
2022-10-13T15:59:57.853Z,64.67
2022-10-13T16:02:24.643Z,64.65
2022-10-13T16:04:52.046Z,64.93
2022-10-13T16:07:18.807Z,66.12
2022-10-13T16:09:45.697Z,65.78
2022-10-13T16:12:12.508Z,65.34
2022-10-13T16:14:39.314Z,66.48
2022-10-13T16:17:06.116Z,66.09
2022-10-13T16:19:32.867Z,66.46
2022-10-13T16:21:59.647Z,67.00
2022-10-13T16:24:26.437Z,66.87
2022-10-13T16:26:53.219Z,67.03
2022-10-13T16:29:19.986Z,66.97
2022-10-13T16:31:46.796Z,67.52
2022-10-13T16:34:13.708Z,67.63
2022-10-13T16:36:40.526Z,68.57
2022-10-13T16:39:07.348Z,69.98
2022-10-13T16:41:34.147Z,68.89
2022-10-13T16:44:00.958Z,69.64
2022-10-13T16:46:27.967Z,70.77
2022-10-13T16:48:54.886Z,70.23
2022-10-13T16:51:23.872Z,72.39
2022-10-13T16:53:58.624Z,71.57
2022-10-13T16:56:28.886Z,71.98
2022-10-13T16:59:04.207Z,72.72
2022-10-13T17:01:32.516Z,72.74
2022-10-13T17:03:59.857Z,72.92
2022-10-13T17:06:28.827Z,72.64
2022-10-13T17:08:58.180Z,72.53
2022-10-13T17:11:31.152Z,72.29
2022-10-13T17:13:59.312Z,72.85
2022-10-13T17:16:27.142Z,72.92
2022-10-13T17:18:54.953Z,73.22
2022-10-13T17:21:22.303Z,72.59
2022-10-13T17:23:49.775Z,72.88
2022-10-13T17:26:18.168Z,72.10
2022-10-13T17:28:45.672Z,72.58
2022-10-13T17:31:21.747Z,72.88
2022-10-13T17:33:49.513Z,73.01
2022-10-13T17:36:18.423Z,73.05
2022-10-13T17:38:46.761Z,72.56
2022-10-13T17:41:14.235Z,72.82
2022-10-13T17:43:41.803Z,72.79
2022-10-13T17:49:01.811Z,72.10
2022-10-13T17:51:29.007Z,72.16
2022-10-13T17:53:58.520Z,71.74
2022-10-13T17:56:25.797Z,71.58
2022-10-13T17:58:53.157Z,71.73
2022-10-13T18:01:25.600Z,72.07
2022-10-13T18:04:01.821Z,71.83
2022-10-13T18:06:36.788Z,71.75
2022-10-13T18:09:09.564Z,71.78
2022-10-13T18:11:38.133Z,71.49
2022-10-13T18:14:05.593Z,71.40
2022-10-13T18:16:32.908Z,71.29
2022-10-13T18:18:59.690Z,71.84
2022-10-13T18:21:26.968Z,71.58
2022-10-13T18:23:58.926Z,71.73
2022-10-13T18:26:27.289Z,71.60
2022-10-13T18:28:55.071Z,73.26
2022-10-13T18:31:23.434Z,74.18
2022-10-13T18:33:51.088Z,75.36
2022-10-13T18:36:23.207Z,75.30
2022-10-13T18:38:51.520Z,75.76
2022-10-13T18:41:20.494Z,76.38
2022-10-13T18:43:47.266Z,76.61
2022-10-13T18:46:14.104Z,76.49
2022-10-13T18:48:41.186Z,76.66
2022-10-13T18:51:10.548Z,77.31
2022-10-13T18:53:39.278Z,77.85
2022-10-13T18:56:14.508Z,78.05
2022-10-13T18:58:41.547Z,79.01
2022-10-13T19:01:11.033Z,79.31
2022-10-13T19:03:39.628Z,80.16
2022-10-13T19:06:12.238Z,80.23
2022-10-13T19:08:39.653Z,80.95
2022-10-13T19:11:17.400Z,81.63
2022-10-13T19:13:44.682Z,81.24
2022-10-13T19:16:18.244Z,80.59
2022-10-13T19:18:45.950Z,81.01
2022-10-13T19:21:13.450Z,81.60
2022-10-13T19:23:40.671Z,81.87
2022-10-13T19:26:14.647Z,81.79
2022-10-13T19:28:42.333Z,82.13
2022-10-13T19:31:18.619Z,82.32
2022-10-13T19:33:47.329Z,82.42
2022-10-13T19:36:26.671Z,82.58
2022-10-13T19:38:54.722Z,83.21
2022-10-13T19:41:21.671Z,83.17
2022-10-13T19:43:48.931Z,83.12
2022-10-13T19:46:16.451Z,83.49
2022-10-13T19:48:44.840Z,83.64
2022-10-13T19:51:12.411Z,83.89
2022-10-13T19:53:40.037Z,84.34
2022-10-13T19:56:07.848Z,84.17
2022-10-13T19:58:35.551Z,85.00
2022-10-13T20:01:08.423Z,84.52
2022-10-13T20:03:35.450Z,84.64
2022-10-13T20:06:06.578Z,85.10
2022-10-13T20:08:33.874Z,85.48
2022-10-13T20:11:09.495Z,85.41
2022-10-13T20:13:36.783Z,85.49
2022-10-13T20:16:08.748Z,85.22
2022-10-13T20:18:36.078Z,85.01
2022-10-13T20:21:07.979Z,85.58
2022-10-13T20:23:35.675Z,85.76
2022-10-13T20:26:07.716Z,85.88
2022-10-13T20:28:40.476Z,86.47
2022-10-13T20:31:10.874Z,85.90
2022-10-13T20:33:37.657Z,86.02
2022-10-13T20:36:08.631Z,86.93
2022-10-13T20:38:36.406Z,86.70
2022-10-13T20:41:17.768Z,86.95
2022-10-13T20:43:48.552Z,86.66
2022-10-13T20:46:16.946Z,86.81
2022-10-13T20:49:09.871Z,87.22
2022-10-13T20:51:31.375Z,87.07
2022-10-13T20:53:58.335Z,86.00
2022-10-13T20:56:26.488Z,86.51
2022-10-13T20:58:54.266Z,86.88
2022-10-13T21:01:22.748Z,87.25
2022-10-13T21:03:56.215Z,87.54
2022-10-13T21:06:24.325Z,87.63
2022-10-13T21:08:51.555Z,87.24
2022-10-13T21:11:20.621Z,87.58
2022-10-13T21:13:48.669Z,87.34
2022-10-13T21:16:18.550Z,87.34
2022-10-13T21:18:48.372Z,87.46
2022-10-13T21:21:18.604Z,87.90
2022-10-13T21:23:49.189Z,87.82
2022-10-13T21:26:21.138Z,88.46
2022-10-13T21:28:49.190Z,87.52
2022-10-13T21:31:16.836Z,88.87
2022-10-13T21:33:44.648Z,88.08
2022-10-13T21:36:13.196Z,89.09
2022-10-13T21:38:40.754Z,88.38
2022-10-13T21:41:08.806Z,88.72
2022-10-13T21:43:36.119Z,88.86
2022-10-13T21:46:24.318Z,88.86
2022-10-13T21:48:53.892Z,89.09
2022-10-13T21:51:26.421Z,89.35
2022-10-13T21:53:56.107Z,89.54
2022-10-13T21:56:24.295Z,89.54
2022-10-13T21:58:51.508Z,89.76
2022-10-13T22:01:19.596Z,89.54
2022-10-13T22:03:47.291Z,89.51
2022-10-13T22:06:19.137Z,89.82
2022-10-13T22:08:48.587Z,90.26
2022-10-13T22:11:16.112Z,90.13
2022-10-13T22:13:43.007Z,89.59
2022-10-13T22:16:13.625Z,90.31
2022-10-13T22:18:40.723Z,90.66
2022-10-13T22:21:11.523Z,90.76
2022-10-13T22:23:38.335Z,89.59
2022-10-13T22:26:05.331Z,90.20
2022-10-13T22:28:36.836Z,90.47
2022-10-13T22:33:35.703Z,89.66
2022-10-13T22:36:15.247Z,89.44
2022-10-13T22:38:42.831Z,89.62
2022-10-13T22:41:10.163Z,89.32
2022-10-13T22:43:37.574Z,89.88
2022-10-13T22:46:08.623Z,89.63
2022-10-13T22:48:40.429Z,89.95
2022-10-13T22:51:08.203Z,89.58
2022-10-13T22:53:35.057Z,89.63
2022-10-13T22:56:06.341Z,89.74
2022-10-13T22:58:33.181Z,89.39
2022-10-13T23:01:14.871Z,89.75
2022-10-13T23:03:42.836Z,89.67
2022-10-13T23:06:13.965Z,90.22
2022-10-13T23:08:41.461Z,89.38
2022-10-13T23:11:08.735Z,89.23
2022-10-13T23:13:35.934Z,89.19
2022-10-13T23:16:08.803Z,88.29
2022-10-13T23:18:35.607Z,88.14
2022-10-13T23:21:07.563Z,88.10
2022-10-13T23:23:35.011Z,87.68
2022-10-13T23:26:11.654Z,88.30
2022-10-13T23:28:38.831Z,88.33
2022-10-13T23:31:07.115Z,89.22
2022-10-13T23:33:34.101Z,88.53
2022-10-13T23:36:02.411Z,88.85
2022-10-13T23:38:30.624Z,88.55
2022-10-13T23:41:11.784Z,88.39
2022-10-13T23:43:38.673Z,88.32
2022-10-13T23:46:05.831Z,88.31
2022-10-13T23:48:33.164Z,89.26
2022-10-13T23:51:09.605Z,89.13
2022-10-13T23:53:37.681Z,89.05
2022-10-13T23:56:06.794Z,89.32
2022-10-13T23:58:36.694Z,89.80
